sensor_id;sensor_type;location;lat;lon;timestamp;pressure;altitude;pressure_sealevel;temperature;humidity
59831;BME280;45711;50.108;13.712;2023-04-07T00:01:12;98013.69;;;-1.62;77.80
59831;BME280;45711;50.108;13.712;2023-04-07T00:03:54;98007.66;;;-1.56;77.65
59831;BME280;45711;50.108;13.712;2023-04-07T00:06:20;98002.81;;;-1.53;78.04
59831;BME280;45711;50.108;13.712;2023-04-07T00:08:46;98018.72;;;-1.67;78.31
59831;BME280;45711;50.108;13.712;2023-04-07T00:11:11;98016.31;;;-1.62;78.38
59831;BME280;45711;50.108;13.712;2023-04-07T00:13:45;98016.56;;;-1.50;78.78
59831;BME280;45711;50.108;13.712;2023-04-07T00:16:11;98009.91;;;-1.46;78.30
59831;BME280;45711;50.108;13.712;2023-04-07T00:18:37;98014.53;;;-1.48;78.18
59831;BME280;45711;50.108;13.712;2023-04-07T00:21:14;98018.78;;;-1.41;78.22
59831;BME280;45711;50.108;13.712;2023-04-07T00:23:45;98021.81;;;-1.44;77.99
59831;BME280;45711;50.108;13.712;2023-04-07T00:26:12;98020.19;;;-1.52;78.81
59831;BME280;45711;50.108;13.712;2023-04-07T00:28:40;98010.91;;;-1.47;78.86
59831;BME280;45711;50.108;13.712;2023-04-07T00:31:22;98026.22;;;-1.64;78.67
59831;BME280;45711;50.108;13.712;2023-04-07T00:34:01;98011.03;;;-1.75;79.01
59831;BME280;45711;50.108;13.712;2023-04-07T00:36:40;98011.63;;;-1.80;79.15
59831;BME280;45711;50.108;13.712;2023-04-07T00:39:20;98009.81;;;-1.80;78.86
59831;BME280;45711;50.108;13.712;2023-04-07T00:42:02;98010.97;;;-1.89;79.00
59831;BME280;45711;50.108;13.712;2023-04-07T00:44:30;98002.94;;;-1.81;79.08
59831;BME280;45711;50.108;13.712;2023-04-07T00:46:56;97996.47;;;-1.85;79.44
59831;BME280;45711;50.108;13.712;2023-04-07T00:49:24;97995.03;;;-1.94;79.04
59831;BME280;45711;50.108;13.712;2023-04-07T00:51:54;97990.81;;;-1.95;79.72
59831;BME280;45711;50.108;13.712;2023-04-07T00:54:23;97988.78;;;-1.93;79.32
59831;BME280;45711;50.108;13.712;2023-04-07T00:56:50;97986.53;;;-2.03;79.23
59831;BME280;45711;50.108;13.712;2023-04-07T00:59:20;97984.94;;;-1.97;79.57
59831;BME280;45711;50.108;13.712;2023-04-07T01:01:52;97985.72;;;-1.96;79.33
59831;BME280;45711;50.108;13.712;2023-04-07T01:04:28;97967.00;;;-1.93;79.35
59831;BME280;45711;50.108;13.712;2023-04-07T01:07:07;97969.41;;;-1.98;78.63
59831;BME280;45711;50.108;13.712;2023-04-07T01:09:39;97968.72;;;-2.20;79.34
59831;BME280;45711;50.108;13.712;2023-04-07T01:12:14;97961.22;;;-2.23;80.08
59831;BME280;45711;50.108;13.712;2023-04-07T01:14:52;97965.13;;;-2.06;79.84
59831;BME280;45711;50.108;13.712;2023-04-07T01:17:20;97958.19;;;-2.27;79.85
59831;BME280;45711;50.108;13.712;2023-04-07T01:19:52;97955.19;;;-2.24;80.00
59831;BME280;45711;50.108;13.712;2023-04-07T01:22:27;97967.31;;;-2.16;79.77
59831;BME280;45711;50.108;13.712;2023-04-07T01:25:17;97961.91;;;-2.08;79.71
59831;BME280;45711;50.108;13.712;2023-04-07T01:27:57;97959.13;;;-2.00;79.76
59831;BME280;45711;50.108;13.712;2023-04-07T01:30:28;97958.81;;;-2.18;79.82
59831;BME280;45711;50.108;13.712;2023-04-07T01:32:56;97958.06;;;-2.12;80.10
59831;BME280;45711;50.108;13.712;2023-04-07T01:35:24;97952.41;;;-2.09;79.53
59831;BME280;45711;50.108;13.712;2023-04-07T01:37:51;97957.03;;;-2.11;79.75
59831;BME280;45711;50.108;13.712;2023-04-07T01:40:23;97950.28;;;-1.86;79.15
59831;BME280;45711;50.108;13.712;2023-04-07T01:42:50;97952.84;;;-1.99;78.63
59831;BME280;45711;50.108;13.712;2023-04-07T01:45:19;97957.53;;;-1.81;78.67
59831;BME280;45711;50.108;13.712;2023-04-07T01:47:50;97955.84;;;-2.09;79.42
59831;BME280;45711;50.108;13.712;2023-04-07T01:50:16;97954.03;;;-2.08;80.40
59831;BME280;45711;50.108;13.712;2023-04-07T01:52:46;97955.47;;;-1.99;80.45
59831;BME280;45711;50.108;13.712;2023-04-07T01:55:12;97947.66;;;-1.86;80.22
59831;BME280;45711;50.108;13.712;2023-04-07T01:57:42;97949.66;;;-1.74;79.23
59831;BME280;45711;50.108;13.712;2023-04-07T02:00:08;97956.28;;;-1.98;79.45
59831;BME280;45711;50.108;13.712;2023-04-07T02:02:35;97951.25;;;-2.00;80.72
59831;BME280;45711;50.108;13.712;2023-04-07T02:05:13;97951.06;;;-1.79;79.81
59831;BME280;45711;50.108;13.712;2023-04-07T02:07:49;97950.66;;;-1.89;79.34
59831;BME280;45711;50.108;13.712;2023-04-07T02:10:20;97950.03;;;-2.04;81.31
59831;BME280;45711;50.108;13.712;2023-04-07T02:12:47;97941.22;;;-2.31;81.01
59831;BME280;45711;50.108;13.712;2023-04-07T02:15:17;97950.13;;;-2.25;80.95
59831;BME280;45711;50.108;13.712;2023-04-07T02:18:05;97947.75;;;-2.14;80.61
59831;BME280;45711;50.108;13.712;2023-04-07T02:20:39;97940.94;;;-2.08;80.13
59831;BME280;45711;50.108;13.712;2023-04-07T02:23:33;97937.19;;;-2.34;80.46
59831;BME280;45711;50.108;13.712;2023-04-07T02:33:39;97938.81;;;-2.33;81.24
59831;BME280;45711;50.108;13.712;2023-04-07T02:38:49;97931.56;;;-2.31;82.47
59831;BME280;45711;50.108;13.712;2023-04-07T02:41:24;97923.28;;;-2.28;82.57
59831;BME280;45711;50.108;13.712;2023-04-07T02:44:03;97927.19;;;-2.17;82.37
59831;BME280;45711;50.108;13.712;2023-04-07T02:46:32;97917.41;;;-2.36;82.37
59831;BME280;45711;50.108;13.712;2023-04-07T02:49:05;97919.38;;;-2.51;82.18
59831;BME280;45711;50.108;13.712;2023-04-07T02:54:52;97921.00;;;-2.50;81.71
59831;BME280;45711;50.108;13.712;2023-04-07T02:57:40;97927.78;;;-2.63;82.15
59831;BME280;45711;50.108;13.712;2023-04-07T03:00:16;97915.06;;;-2.66;82.77
59831;BME280;45711;50.108;13.712;2023-04-07T03:02:59;97920.69;;;-2.69;82.72
59831;BME280;45711;50.108;13.712;2023-04-07T03:05:31;97913.50;;;-2.60;82.96
59831;BME280;45711;50.108;13.712;2023-04-07T03:08:09;97925.16;;;-2.63;82.39
59831;BME280;45711;50.108;13.712;2023-04-07T03:11:07;97919.31;;;-2.65;82.60
59831;BME280;45711;50.108;13.712;2023-04-07T03:13:36;97909.22;;;-2.68;82.68
59831;BME280;45711;50.108;13.712;2023-04-07T03:19:25;97912.41;;;-2.72;83.40
59831;BME280;45711;50.108;13.712;2023-04-07T03:23:05;97918.50;;;-2.65;82.95
59831;BME280;45711;50.108;13.712;2023-04-07T03:24:49;97914.28;;;-2.60;82.98
59831;BME280;45711;50.108;13.712;2023-04-07T03:27:21;97911.09;;;-2.48;83.08
59831;BME280;45711;50.108;13.712;2023-04-07T03:29:47;97909.75;;;-2.38;81.97
59831;BME280;45711;50.108;13.712;2023-04-07T03:32:15;97913.91;;;-2.57;82.42
59831;BME280;45711;50.108;13.712;2023-04-07T03:34:56;97915.69;;;-2.64;82.82
59831;BME280;45711;50.108;13.712;2023-04-07T03:37:39;97907.03;;;-2.64;83.07
59831;BME280;45711;50.108;13.712;2023-04-07T03:40:27;97900.81;;;-2.57;82.46
59831;BME280;45711;50.108;13.712;2023-04-07T03:43:14;97899.00;;;-2.56;83.25
59831;BME280;45711;50.108;13.712;2023-04-07T03:45:43;97888.75;;;-2.51;83.25
59831;BME280;45711;50.108;13.712;2023-04-07T03:48:46;97906.13;;;-2.43;82.87
59831;BME280;45711;50.108;13.712;2023-04-07T03:51:18;97900.03;;;-2.50;83.55
59831;BME280;45711;50.108;13.712;2023-04-07T03:57:26;97902.78;;;-2.11;82.69
59831;BME280;45711;50.108;13.712;2023-04-07T04:00:05;97913.44;;;-2.25;82.40
59831;BME280;45711;50.108;13.712;2023-04-07T04:06:22;97901.59;;;-2.08;81.65
59831;BME280;45711;50.108;13.712;2023-04-07T04:08:58;97911.09;;;-1.94;81.42
59831;BME280;45711;50.108;13.712;2023-04-07T04:11:26;97909.47;;;-2.08;82.03
59831;BME280;45711;50.108;13.712;2023-04-07T04:14:42;97902.16;;;-2.19;82.31
59831;BME280;45711;50.108;13.712;2023-04-07T04:17:21;97906.63;;;-2.13;82.58
59831;BME280;45711;50.108;13.712;2023-04-07T04:19:49;97909.81;;;-2.18;82.67
59831;BME280;45711;50.108;13.712;2023-04-07T04:22:19;97894.28;;;-2.19;82.65
59831;BME280;45711;50.108;13.712;2023-04-07T04:25:15;97901.78;;;-2.16;82.70
59831;BME280;45711;50.108;13.712;2023-04-07T04:30:08;97895.13;;;-2.06;82.01
59831;BME280;45711;50.108;13.712;2023-04-07T04:31:28;97897.56;;;-1.97;82.04
59831;BME280;45711;50.108;13.712;2023-04-07T04:37:28;97890.53;;;-1.70;80.99
59831;BME280;45711;50.108;13.712;2023-04-07T04:39:58;97888.13;;;-1.79;80.42
59831;BME280;45711;50.108;13.712;2023-04-07T04:42:58;97889.34;;;-1.74;81.13
59831;BME280;45711;50.108;13.712;2023-04-07T04:46:23;97892.16;;;-1.76;81.19
59831;BME280;45711;50.108;13.712;2023-04-07T04:48:56;97887.94;;;-1.64;81.26
59831;BME280;45711;50.108;13.712;2023-04-07T04:51:41;97894.19;;;-1.58;81.46
59831;BME280;45711;50.108;13.712;2023-04-07T05:01:53;97888.53;;;-1.75;82.92
59831;BME280;45711;50.108;13.712;2023-04-07T05:04:27;97894.59;;;-1.81;82.84
59831;BME280;45711;50.108;13.712;2023-04-07T05:06:53;97889.53;;;-1.89;83.25
59831;BME280;45711;50.108;13.712;2023-04-07T05:09:24;97884.09;;;-1.74;82.89
59831;BME280;45711;50.108;13.712;2023-04-07T05:12:19;97883.50;;;-1.77;83.32
59831;BME280;45711;50.108;13.712;2023-04-07T05:14:49;97882.06;;;-1.66;82.87
59831;BME280;45711;50.108;13.712;2023-04-07T05:17:49;97880.88;;;-1.37;81.90
59831;BME280;45711;50.108;13.712;2023-04-07T05:20:16;97879.47;;;-1.39;82.01
59831;BME280;45711;50.108;13.712;2023-04-07T05:29:29;97894.81;;;-1.23;81.52
59831;BME280;45711;50.108;13.712;2023-04-07T05:32:21;97896.81;;;-1.12;80.85
59831;BME280;45711;50.108;13.712;2023-04-07T05:35:26;97893.16;;;-0.97;81.36
59831;BME280;45711;50.108;13.712;2023-04-07T05:38:01;97894.75;;;-0.77;81.34
59831;BME280;45711;50.108;13.712;2023-04-07T05:44:05;97884.41;;;-0.65;80.78
59831;BME280;45711;50.108;13.712;2023-04-07T05:52:53;97891.56;;;-0.40;79.88
59831;BME280;45711;50.108;13.712;2023-04-07T05:55:47;97889.38;;;-0.43;79.76
59831;BME280;45711;50.108;13.712;2023-04-07T06:00:42;97892.59;;;-0.35;79.25
59831;BME280;45711;50.108;13.712;2023-04-07T06:05:03;97889.97;;;-0.41;77.96
59831;BME280;45711;50.108;13.712;2023-04-07T06:07:38;97882.09;;;-0.03;78.52
59831;BME280;45711;50.108;13.712;2023-04-07T06:10:27;97879.31;;;-0.15;77.53
59831;BME280;45711;50.108;13.712;2023-04-07T06:12:52;97881.16;;;0.16;77.72
59831;BME280;45711;50.108;13.712;2023-04-07T06:15:24;97881.03;;;0.36;76.98
59831;BME280;45711;50.108;13.712;2023-04-07T06:18:12;97885.06;;;0.07;77.69
59831;BME280;45711;50.108;13.712;2023-04-07T06:20:51;97882.31;;;0.27;77.28
59831;BME280;45711;50.108;13.712;2023-04-07T06:23:55;97873.06;;;0.18;77.17
59831;BME280;45711;50.108;13.712;2023-04-07T06:26:52;97883.72;;;0.30;76.63
59831;BME280;45711;50.108;13.712;2023-04-07T06:29:46;97875.44;;;0.26;76.51
59831;BME280;45711;50.108;13.712;2023-04-07T06:32:49;97869.66;;;0.42;76.26
59831;BME280;45711;50.108;13.712;2023-04-07T06:49:04;97887.41;;;1.40;73.18
59831;BME280;45711;50.108;13.712;2023-04-07T06:51:30;97888.63;;;1.38;72.71
59831;BME280;45711;50.108;13.712;2023-04-07T06:54:18;97885.84;;;1.51;73.35
59831;BME280;45711;50.108;13.712;2023-04-07T06:56:46;97883.34;;;1.38;73.78
59831;BME280;45711;50.108;13.712;2023-04-07T06:59:12;97889.50;;;1.50;72.95
59831;BME280;45711;50.108;13.712;2023-04-07T07:01:38;97889.22;;;1.58;73.73
59831;BME280;45711;50.108;13.712;2023-04-07T07:04:03;97893.97;;;1.68;73.57
59831;BME280;45711;50.108;13.712;2023-04-07T07:06:34;97886.41;;;1.71;72.31
59831;BME280;45711;50.108;13.712;2023-04-07T07:09:02;97886.03;;;1.86;71.59
59831;BME280;45711;50.108;13.712;2023-04-07T07:18:24;97885.94;;;2.23;70.64
59831;BME280;45711;50.108;13.712;2023-04-07T07:20:53;97889.38;;;2.23;69.91
59831;BME280;45711;50.108;13.712;2023-04-07T07:26:31;97881.94;;;3.09;71.57
59831;BME280;45711;50.108;13.712;2023-04-07T07:28:56;97886.41;;;2.97;66.96
59831;BME280;45711;50.108;13.712;2023-04-07T07:31:48;97887.88;;;2.58;65.61
59831;BME280;45711;50.108;13.712;2023-04-07T07:37:30;97894.44;;;2.90;63.15
59831;BME280;45711;50.108;13.712;2023-04-07T07:43:16;97899.72;;;3.37;70.29
59831;BME280;45711;50.108;13.712;2023-04-07T07:46:04;97899.03;;;3.18;61.15
59831;BME280;45711;50.108;13.712;2023-04-07T07:49:07;97901.44;;;3.08;62.22
59831;BME280;45711;50.108;13.712;2023-04-07T07:51:48;97887.63;;;3.41;66.93
59831;BME280;45711;50.108;13.712;2023-04-07T07:54:48;97900.00;;;3.64;62.87
59831;BME280;45711;50.108;13.712;2023-04-07T08:01:41;97900.38;;;3.96;64.54
59831;BME280;45711;50.108;13.712;2023-04-07T08:07:04;97902.41;;;4.06;64.12
59831;BME280;45711;50.108;13.712;2023-04-07T08:09:41;97900.91;;;3.70;63.43
59831;BME280;45711;50.108;13.712;2023-04-07T08:12:25;97895.75;;;3.63;64.80
59831;BME280;45711;50.108;13.712;2023-04-07T08:15:14;97895.03;;;3.80;64.95
59831;BME280;45711;50.108;13.712;2023-04-07T08:17:40;97897.19;;;4.11;63.81
59831;BME280;45711;50.108;13.712;2023-04-07T08:20:17;97896.75;;;4.14;63.12
59831;BME280;45711;50.108;13.712;2023-04-07T08:23:27;97905.91;;;4.23;63.42
59831;BME280;45711;50.108;13.712;2023-04-07T08:25:52;97909.47;;;4.46;62.39
59831;BME280;45711;50.108;13.712;2023-04-07T08:28:46;97903.28;;;4.40;60.65
59831;BME280;45711;50.108;13.712;2023-04-07T08:31:14;97908.31;;;4.70;64.21
59831;BME280;45711;50.108;13.712;2023-04-07T08:36:41;97918.66;;;5.22;61.63
59831;BME280;45711;50.108;13.712;2023-04-07T08:39:26;97909.66;;;5.23;60.08
59831;BME280;45711;50.108;13.712;2023-04-07T08:44:04;97907.94;;;5.34;64.18
59831;BME280;45711;50.108;13.712;2023-04-07T08:48:37;97905.44;;;5.88;61.59
59831;BME280;45711;50.108;13.712;2023-04-07T08:51:13;97907.09;;;6.16;57.03
59831;BME280;45711;50.108;13.712;2023-04-07T08:57:27;97899.06;;;6.65;58.08
59831;BME280;45711;50.108;13.712;2023-04-07T09:00:04;97903.53;;;6.92;58.38
59831;BME280;45711;50.108;13.712;2023-04-07T09:02:54;97905.16;;;6.93;59.94
59831;BME280;45711;50.108;13.712;2023-04-07T09:05:52;97900.91;;;6.97;60.62
59831;BME280;45711;50.108;13.712;2023-04-07T09:08:28;97896.38;;;7.40;58.26
59831;BME280;45711;50.108;13.712;2023-04-07T09:11:29;97905.75;;;7.47;57.49
59831;BME280;45711;50.108;13.712;2023-04-07T09:14:11;97909.09;;;8.58;44.80
59831;BME280;45711;50.108;13.712;2023-04-07T09:17:06;97898.31;;;8.17;55.46
59831;BME280;45711;50.108;13.712;2023-04-07T09:20:00;97895.50;;;7.76;42.76
59831;BME280;45711;50.108;13.712;2023-04-07T09:22:37;97902.59;;;8.23;42.73
59831;BME280;45711;50.108;13.712;2023-04-07T09:25:12;97896.78;;;8.57;42.65
59831;BME280;45711;50.108;13.712;2023-04-07T09:27:55;97892.28;;;8.73;48.66
59831;BME280;45711;50.108;13.712;2023-04-07T09:30:21;97886.94;;;8.63;51.09
59831;BME280;45711;50.108;13.712;2023-04-07T09:32:47;97889.34;;;8.85;42.04
59831;BME280;45711;50.108;13.712;2023-04-07T09:35:58;97880.72;;;8.21;52.59
59831;BME280;45711;50.108;13.712;2023-04-07T09:38:52;97873.38;;;7.71;56.85
59831;BME280;45711;50.108;13.712;2023-04-07T09:41:20;97873.16;;;7.88;47.13
59831;BME280;45711;50.108;13.712;2023-04-07T09:44:08;97860.41;;;8.00;49.81
59831;BME280;45711;50.108;13.712;2023-04-07T09:51:02;97863.22;;;7.58;56.87
59831;BME280;45711;50.108;13.712;2023-04-07T09:53:43;97859.41;;;7.48;50.89
59831;BME280;45711;50.108;13.712;2023-04-07T09:59:59;97857.78;;;6.95;60.17
59831;BME280;45711;50.108;13.712;2023-04-07T10:08:40;97852.25;;;7.01;60.38
59831;BME280;45711;50.108;13.712;2023-04-07T10:11:12;97849.34;;;7.08;55.03
59831;BME280;45711;50.108;13.712;2023-04-07T10:30:24;97836.03;;;7.03;53.68
59831;BME280;45711;50.108;13.712;2023-04-07T10:37:07;97838.75;;;7.71;57.25
59831;BME280;45711;50.108;13.712;2023-04-07T10:39:25;97832.69;;;7.23;59.73
59831;BME280;45711;50.108;13.712;2023-04-07T10:44:54;97829.88;;;6.97;60.98
59831;BME280;45711;50.108;13.712;2023-04-07T10:50:43;97829.53;;;8.14;53.30
59831;BME280;45711;50.108;13.712;2023-04-07T10:53:15;97827.63;;;7.99;52.21
59831;BME280;45711;50.108;13.712;2023-04-07T10:55:54;97826.59;;;8.26;45.79
59831;BME280;45711;50.108;13.712;2023-04-07T10:58:31;97830.63;;;8.34;45.83
59831;BME280;45711;50.108;13.712;2023-04-07T11:01:55;97836.47;;;8.10;54.04
59831;BME280;45711;50.108;13.712;2023-04-07T11:04:32;97836.91;;;7.76;56.81
59831;BME280;45711;50.108;13.712;2023-04-07T11:07:17;97825.75;;;8.00;49.30
59831;BME280;45711;50.108;13.712;2023-04-07T11:10:14;97831.66;;;8.17;51.69
59831;BME280;45711;50.108;13.712;2023-04-07T11:12:58;97823.88;;;7.90;53.79
59831;BME280;45711;50.108;13.712;2023-04-07T11:15:34;97824.72;;;8.06;48.18
59831;BME280;45711;50.108;13.712;2023-04-07T11:18:19;97820.94;;;7.92;51.72
59831;BME280;45711;50.108;13.712;2023-04-07T11:21:07;97816.97;;;7.84;54.74
59831;BME280;45711;50.108;13.712;2023-04-07T11:23:43;97816.31;;;7.51;57.10
59831;BME280;45711;50.108;13.712;2023-04-07T11:26:21;97810.25;;;7.71;52.21
59831;BME280;45711;50.108;13.712;2023-04-07T11:28:56;97813.28;;;8.31;46.65
59831;BME280;45711;50.108;13.712;2023-04-07T11:31:26;97811.41;;;8.26;46.44
59831;BME280;45711;50.108;13.712;2023-04-07T11:34:09;97815.38;;;8.09;49.42
59831;BME280;45711;50.108;13.712;2023-04-07T11:36:42;97813.56;;;8.40;45.25
59831;BME280;45711;50.108;13.712;2023-04-07T11:39:40;97810.84;;;7.99;52.58
59831;BME280;45711;50.108;13.712;2023-04-07T11:42:38;97809.00;;;8.30;45.88
59831;BME280;45711;50.108;13.712;2023-04-07T11:48:38;97817.47;;;7.86;56.05
59831;BME280;45711;50.108;13.712;2023-04-07T11:51:22;97818.03;;;7.98;51.15
59831;BME280;45711;50.108;13.712;2023-04-07T11:55:21;97805.22;;;7.75;57.30
59831;BME280;45711;50.108;13.712;2023-04-07T11:57:22;97806.59;;;8.13;53.42
59831;BME280;45711;50.108;13.712;2023-04-07T12:01:53;97809.81;;;8.10;48.24
59831;BME280;45711;50.108;13.712;2023-04-07T12:03:53;97802.91;;;8.40;47.04
59831;BME280;45711;50.108;13.712;2023-04-07T12:06:41;97802.56;;;7.95;55.29
59831;BME280;45711;50.108;13.712;2023-04-07T12:12:06;97801.53;;;8.06;56.03
59831;BME280;45711;50.108;13.712;2023-04-07T12:14:50;97801.25;;;8.03;48.53
59831;BME280;45711;50.108;13.712;2023-04-07T12:18:15;97798.84;;;7.96;54.75
59831;BME280;45711;50.108;13.712;2023-04-07T12:20:54;97796.09;;;7.66;58.55
59831;BME280;45711;50.108;13.712;2023-04-07T12:23:37;97804.97;;;7.92;55.69
59831;BME280;45711;50.108;13.712;2023-04-07T12:26:13;97808.22;;;8.14;50.87
59831;BME280;45711;50.108;13.712;2023-04-07T12:32:24;97798.25;;;7.64;58.18
59831;BME280;45711;50.108;13.712;2023-04-07T12:35:32;97802.56;;;7.90;56.89
59831;BME280;45711;50.108;13.712;2023-04-07T12:38:48;97805.56;;;8.35;48.64
59831;BME280;45711;50.108;13.712;2023-04-07T13:17:09;97798.91;;;8.32;53.63
59831;BME280;45711;50.108;13.712;2023-04-07T13:19:35;97787.47;;;8.42;46.39
59831;BME280;45711;50.108;13.712;2023-04-07T13:22:01;97793.53;;;8.17;53.50
59831;BME280;45711;50.108;13.712;2023-04-07T13:24:27;97790.38;;;8.76;51.24
59831;BME280;45711;50.108;13.712;2023-04-07T13:26:52;97790.34;;;8.86;51.06
59831;BME280;45711;50.108;13.712;2023-04-07T13:29:18;97789.00;;;8.89;46.53
59831;BME280;45711;50.108;13.712;2023-04-07T13:31:45;97785.97;;;9.26;46.95
59831;BME280;45711;50.108;13.712;2023-04-07T13:34:12;97778.84;;;8.91;50.22
59831;BME280;45711;50.108;13.712;2023-04-07T13:36:38;97788.09;;;9.29;42.16
59831;BME280;45711;50.108;13.712;2023-04-07T13:39:03;97782.63;;;8.85;47.90
59831;BME280;45711;50.108;13.712;2023-04-07T13:41:29;97782.63;;;8.79;50.88
59831;BME280;45711;50.108;13.712;2023-04-07T13:43:55;97779.69;;;8.76;51.90
59831;BME280;45711;50.108;13.712;2023-04-07T13:46:21;97776.72;;;8.82;53.54
59831;BME280;45711;50.108;13.712;2023-04-07T13:48:46;97776.97;;;8.91;45.96
59831;BME280;45711;50.108;13.712;2023-04-07T13:51:13;97770.34;;;8.73;51.51
59831;BME280;45711;50.108;13.712;2023-04-07T13:53:39;97775.41;;;8.75;47.49
59831;BME280;45711;50.108;13.712;2023-04-07T13:56:05;97774.28;;;8.96;47.72
59831;BME280;45711;50.108;13.712;2023-04-07T13:58:33;97773.03;;;8.68;49.47
59831;BME280;45711;50.108;13.712;2023-04-07T14:00:58;97775.66;;;8.78;46.88
59831;BME280;45711;50.108;13.712;2023-04-07T14:03:24;97775.44;;;8.65;54.17
59831;BME280;45711;50.108;13.712;2023-04-07T14:05:49;97773.84;;;8.53;55.69
59831;BME280;45711;50.108;13.712;2023-04-07T14:08:16;97771.44;;;8.57;51.93
59831;BME280;45711;50.108;13.712;2023-04-07T14:10:43;97773.03;;;8.53;47.97
59831;BME280;45711;50.108;13.712;2023-04-07T14:13:08;97776.78;;;8.57;46.28
59831;BME280;45711;50.108;13.712;2023-04-07T14:15:35;97770.88;;;8.86;51.98
59831;BME280;45711;50.108;13.712;2023-04-07T14:18:01;97775.38;;;8.90;51.26
59831;BME280;45711;50.108;13.712;2023-04-07T14:20:26;97764.50;;;8.51;54.49
59831;BME280;45711;50.108;13.712;2023-04-07T14:22:52;97762.38;;;8.63;53.15
59831;BME280;45711;50.108;13.712;2023-04-07T14:25:19;97763.63;;;8.96;49.14
59831;BME280;45711;50.108;13.712;2023-04-07T14:27:45;97768.19;;;8.86;48.35
59831;BME280;45711;50.108;13.712;2023-04-07T14:30:11;97763.41;;;8.77;50.48
59831;BME280;45711;50.108;13.712;2023-04-07T14:32:36;97766.03;;;8.88;46.40
59831;BME280;45711;50.108;13.712;2023-04-07T14:35:02;97765.25;;;8.87;51.78
59831;BME280;45711;50.108;13.712;2023-04-07T14:38:04;97757.84;;;8.53;53.48
59831;BME280;45711;50.108;13.712;2023-04-07T14:44:21;97765.47;;;9.06;44.48
59831;BME280;45711;50.108;13.712;2023-04-07T14:47:37;97767.06;;;9.07;45.30
59831;BME280;45711;50.108;13.712;2023-04-07T14:50:40;97765.84;;;8.64;53.18
59831;BME280;45711;50.108;13.712;2023-04-07T14:54:06;97764.50;;;8.56;48.95
59831;BME280;45711;50.108;13.712;2023-04-07T16:43:48;97806.31;;;8.10;50.54
59831;BME280;45711;50.108;13.712;2023-04-07T16:46:16;97797.53;;;8.09;53.76
59831;BME280;45711;50.108;13.712;2023-04-07T16:48:42;97803.13;;;8.13;53.46
59831;BME280;45711;50.108;13.712;2023-04-07T16:51:07;97802.88;;;8.19;50.39
59831;BME280;45711;50.108;13.712;2023-04-07T16:53:33;97801.53;;;8.17;51.08
59831;BME280;45711;50.108;13.712;2023-04-07T16:55:58;97808.50;;;8.23;55.68
59831;BME280;45711;50.108;13.712;2023-04-07T16:58:24;97804.22;;;8.17;52.02
59831;BME280;45711;50.108;13.712;2023-04-07T17:00:51;97813.56;;;8.24;57.05
